Terminal Aerodrome Forecast
Issued by NWS Huntsville, AL

Home | Current Version | Previous Version | Text Only | Print | Product List | Glossary On
Versions: 1 2 3 4 5 6 7 8 9 10 11 12 13 14 15 16 17
000
FTUS44 KHUN 232320
TAFMSL
TAF
KMSL 232320Z 2400/2424 25005KT P6SM SCT035 BKN050
     FM240500 VRB03KT 4SM SHRA SCT008 BKN025 OVC100
      TEMPO 2406/2410 3SM TSRA BKN025CB
     FM241200 29010KT P6SM BKN020 OVC070=

USA.gov is the U.S. government's official web portal to all federal, state and local government web resources and services.